Nearby METAR Reports

 

KSJC - San Jose, California, USA
Distance from station: NE 9mi, 14km
Updated: 09,15/2019 1:53am
Clear
Clear
 Wind from NNW
Wind: NNW 8 mph , 13 km/h
Temperature: 63°F , 17°C
Dew Point: 59°F , 15°C
Humidity: 88%
Barometer: 29.91 inHg , 1012.9 hPa
Clouds: Clear
Visibility: 10 miles , 16 km
2019/09/15 05:53 KSJC 150553Z 34007KT 10SM CLR 17/15 A2991 RMK AO2 SLP127 T01720150 10278 20172 51008
KNUQ - Moffett Nas/Mtn, California, USA
Distance from station: N 9mi, 14km
Updated: 09,15/2019 12:56am

 
Barometer: 29.92 inHg , 1013.2 hPa
2019/09/15 04:56 KNUQ 150456Z A2992 RMK AO2 SLP136 PWINO $
KPAO - Palo Alto, California, USA
Distance from station: NNW 14mi, 23km
Updated: 09,14/2019 11:47pm
NOT Current
Clear
Clear
 Wind from NNW
Wind: NNW 7 mph , 11 km/h
Temperature: 63°F , 17°C
Dew Point: 57°F , 14°C
Humidity: 83%
Barometer: 29.90 inHg , 1012.5 hPa
Clouds: Clear
Visibility: 10 miles , 16 km
2019/09/15 03:47 KPAO 150347Z 34006KT 10SM SKC 17/14 A2990 RMK LAST
 
KRHV - San Jose/Reid, California, USA
Distance from station: ENE 12mi, 19km
Updated: 09,15/2019 12:52am
Clear
Clear
 Wind from WNW
Wind: WNW 5 mph , 7 km/h
Temperature: 66°F , 19°C
Dew Point: 57°F , 14°C
Humidity: 73%
Barometer: 29.91 inHg , 1012.9 hPa
Clouds: Clear
Visibility: 10 miles , 16 km
2019/09/15 04:52 KRHV 150452Z 30004KT 10SM SKC 19/14 A2991 RMK LAST
KOAK - Oakland, California, USA
Distance from station: NNW 31mi, 50km
Updated: 09,15/2019 1:53am
Mostly cloudy
Mostly cloudy
 Wind from W
Wind: W 12 mph , 19 km/h
Temperature: 63°F , 17°C
Dew Point: 57°F , 14°C
Humidity: 83%
Barometer: 29.92 inHg , 1013.2 hPa
Clouds: Mostly cloudy
Visibility: 10 miles , 16 km
Cloud details: Few Clouds 800 ft
Mostly cloudy 1000 ft
2019/09/15 05:53 KOAK 150553Z 26010KT 10SM FEW008 BKN010 17/14 A2992 RMK AO2 SLP131 T01670139 10228 20167 50009
KSQL - San Carlos Airpo, California, USA
Distance from station: NW 21mi, 34km
Updated: 09,14/2019 11:49pm
NOT Current
Clear
Clear
 Wind from WNW
Wind: WNW 7 mph , 11 km/h
Temperature: 64°F , 18°C
Dew Point: 54°F , 12°C
Humidity: 68%
Barometer: 29.90 inHg , 1012.5 hPa
Clouds: Clear
Visibility: 10 miles , 16 km
2019/09/15 03:49 KSQL 150349Z 30006KT 10SM SKC 18/12 A2990 RMK LAST
 
KSFO - San Francisco, California, USA
Distance from station: NW 30mi, 49km
Updated: 09,15/2019 1:33am
Mostly cloudy
Mostly cloudy
 Wind from W
Wind: W 15 mph , 24 km/h
Temperature: 63°F , 17°C
Dew Point: 55°F , 13°C
Humidity: 77%
Barometer: 29.91 inHg , 1012.9 hPa
Clouds: Mostly cloudy
Visibility: 10 miles , 16 km
Cloud details: Few Clouds 500 ft
Mostly cloudy 800 ft
2019/09/15 05:33 KSFO 150533Z 27013KT 10SM FEW005 BKN008 17/13 A2991 RMK AO2 T01670133
KE16 - San Martin, California, USA
Distance from station: ESE 27mi, 43km
Updated: 08,05/2019 1:10pm
NOT Current
Clear
Clear
 Wind from ESE
Wind: ESE 12 mph , 19 km/h
Temperature: 66°F , 19°C
Dew Point: 57°F , 14°C
Humidity: 73%
Barometer: 30.03 inHg , 1016.9 hPa
Clouds: Clear
Visibility: 10 miles , 16 km
2019/08/05 17:10 KE16 051710Z AUTO 12010KT 10SM CLR 19/14 A3003 RMK AO2
KWVI - Watsonville, California, USA
Distance from station: SSE 27mi, 44km
Updated: 09,13/2019 5:53pm
NOT Current
Clear
Clear
 Wind from W
Wind: W 10 mph , 17 km/h
Temperature: 99°F , 37°C
Dew Point: 39°F , 4°C
Humidity: 13%
Barometer: 29.93 inHg , 1013.5 hPa
Clouds: Clear
Visibility: 10 miles , 16 km
2019/09/13 21:53 KWVI 132153Z AUTO 27009KT 10SM CLR 37/04 A2993 RMK AO2 SLP133 T03670039
 
KHAF - Half Moon Bay, California, USA
Distance from station: WNW 31mi, 50km
Updated: 09,15/2019 1:40am
Overcast
Overcast
 Wind from NNW
Wind: NNW 10 mph , 17 km/h
Temperature: 59°F , 15°C
Dew Point: 57°F , 14°C
Humidity: 94%
Barometer: 29.94 inHg , 1013.9 hPa
Clouds: Overcast
Visibility: 8 miles , 13 km
Cloud details: Overcast 600 ft
2019/09/15 05:40 KHAF 150540Z AUTO 34009KT 8SM OVC006 15/14 A2994 RMK AO2
KHWD - Hayward, California, USA
Distance from station: N 28mi, 44km
Updated: 09,15/2019 1:50am
Mostly cloudy
Mostly cloudy
 Wind from W
Wind: W 9 mph , 15 km/h
Temperature: 63°F , 17°C
Dew Point: 57°F , 14°C
Humidity: 83%
Barometer: 29.92 inHg , 1013.2 hPa
Clouds: Mostly cloudy
Visibility: 10 miles , 16 km
Cloud details: Mostly cloudy 800 ft
2019/09/15 05:50 KHWD 150550Z AUTO 27008KT 10SM BKN008 17/14 A2992 RMK AO2
KLVK - Livermore, California, USA
Distance from station: NNE 31mi, 51km
Updated: 09,15/2019 1:53am
Clear
Clear
 Wind from WNW
Wind: WNW 10 mph , 17 km/h
Temperature: 64°F , 18°C
Dew Point: 54°F , 12°C
Humidity: 68%
Barometer: 29.89 inHg , 1012.2 hPa
Clouds: Clear
Visibility: 10 miles , 16 km
2019/09/15 05:53 KLVK 150553Z AUTO 30009KT 10SM CLR 18/12 A2989 RMK AO2 SLP116 T0183